createdAt,value
2022-10-06T00:00:29.994Z,17.60
2022-10-06T00:01:31.858Z,17.60
2022-10-06T00:02:36.770Z,17.60
2022-10-06T00:03:39.280Z,17.60
2022-10-06T00:04:41.109Z,17.60
2022-10-06T00:05:43.296Z,17.60
2022-10-06T00:06:45.123Z,17.60
2022-10-06T00:07:46.875Z,17.50
2022-10-06T00:08:48.957Z,17.50
2022-10-06T00:09:50.703Z,17.50
2022-10-06T00:10:56.295Z,17.50
2022-10-06T00:11:57.960Z,17.50
2022-10-06T00:12:59.895Z,17.50
2022-10-06T00:14:01.568Z,17.50
2022-10-06T00:15:03.354Z,17.50
2022-10-06T00:16:17.576Z,17.50
2022-10-06T00:17:19.478Z,17.50
2022-10-06T00:18:21.159Z,17.40
2022-10-06T00:19:22.834Z,17.40
2022-10-06T00:20:26.188Z,17.40
2022-10-06T00:21:28.184Z,17.40
2022-10-06T00:22:38.223Z,17.40
2022-10-06T00:23:39.882Z,17.30
2022-10-06T00:24:41.540Z,17.30
2022-10-06T00:25:43.186Z,17.30
2022-10-06T00:26:46.193Z,17.30
2022-10-06T00:27:50.297Z,17.30
2022-10-06T00:28:51.953Z,17.20
2022-10-06T00:29:53.634Z,17.20
2022-10-06T00:30:56.418Z,17.20
2022-10-06T00:31:58.223Z,17.20
2022-10-06T00:33:02.951Z,17.20
2022-10-06T00:34:05.180Z,17.20
2022-10-06T00:35:07.991Z,17.10
2022-10-06T00:36:09.752Z,17.10
2022-10-06T00:37:11.412Z,17.00
2022-10-06T00:38:15.485Z,17.10
2022-10-06T00:39:17.252Z,17.00
2022-10-06T00:40:19.337Z,16.90
2022-10-06T00:42:58.123Z,16.80
2022-10-06T00:44:00.290Z,16.80
2022-10-06T00:45:06.736Z,16.80
2022-10-06T00:46:53.636Z,16.70
2022-10-06T00:47:59.279Z,16.70
2022-10-06T00:49:12.638Z,16.70
2022-10-06T00:50:15.035Z,16.60
2022-10-06T00:51:16.960Z,16.60
2022-10-06T00:52:22.840Z,16.60
2022-10-06T00:53:28.842Z,16.60
2022-10-06T00:54:32.068Z,16.60
2022-10-06T00:55:34.016Z,16.70
2022-10-06T00:56:37.461Z,16.60
2022-10-06T00:57:40.727Z,16.60
2022-10-06T00:58:42.399Z,16.60
2022-10-06T00:59:44.075Z,16.60
2022-10-06T01:00:48.510Z,16.50
2022-10-06T01:02:00.490Z,16.50
2022-10-06T01:03:18.164Z,16.40
2022-10-06T01:04:21.149Z,16.50
2022-10-06T01:05:30.274Z,16.40
2022-10-06T01:06:41.853Z,16.40
2022-10-06T01:07:43.531Z,16.40
2022-10-06T01:08:46.653Z,16.40
2022-10-06T01:09:49.026Z,16.40
2022-10-06T01:10:50.714Z,16.40
2022-10-06T01:11:55.186Z,16.40
2022-10-06T01:12:57.229Z,16.40
2022-10-06T01:13:58.969Z,16.40
2022-10-06T01:15:00.935Z,16.40
2022-10-06T01:16:10.471Z,16.40
2022-10-06T01:17:29.161Z,16.40
2022-10-06T01:18:32.385Z,16.40
2022-10-06T01:19:52.062Z,16.50
2022-10-06T01:21:25.563Z,16.50
2022-10-06T01:22:43.467Z,16.50
2022-10-06T01:23:45.576Z,16.40
2022-10-06T01:24:50.616Z,16.50
2022-10-06T01:25:52.758Z,16.40
2022-10-06T01:26:56.536Z,16.50
2022-10-06T01:28:00.317Z,16.50
2022-10-06T01:29:02.209Z,16.50
2022-10-06T01:30:06.268Z,16.40
2022-10-06T01:31:09.270Z,16.50
2022-10-06T01:32:11.177Z,16.50
2022-10-06T01:33:12.842Z,16.50
2022-10-06T01:34:14.673Z,16.50
2022-10-06T01:35:16.411Z,16.50
2022-10-06T01:36:18.088Z,16.50
2022-10-06T01:37:19.764Z,16.40
2022-10-06T01:38:22.090Z,16.40
2022-10-06T01:39:23.779Z,16.40
2022-10-06T01:40:28.968Z,16.40
2022-10-06T01:41:33.267Z,16.40
2022-10-06T01:42:35.860Z,16.40
2022-10-06T01:43:37.954Z,16.50
2022-10-06T01:44:39.763Z,16.40
2022-10-06T01:45:41.458Z,16.40
2022-10-06T01:46:43.188Z,16.40
2022-10-06T01:47:44.936Z,16.50
2022-10-06T01:48:46.623Z,16.50
2022-10-06T01:49:48.291Z,16.50
2022-10-06T01:50:50.157Z,16.50
2022-10-06T01:51:51.916Z,16.40
2022-10-06T01:52:55.916Z,16.40
2022-10-06T01:53:57.617Z,16.40
2022-10-06T01:54:59.325Z,16.40
2022-10-06T01:56:00.983Z,16.40
2022-10-06T01:57:04.746Z,16.40
2022-10-06T01:58:06.388Z,16.40
2022-10-06T01:59:08.050Z,16.40
2022-10-06T02:00:11.271Z,16.40
2022-10-06T02:01:13.595Z,16.40
2022-10-06T02:02:15.461Z,16.40
2022-10-06T02:03:17.574Z,16.40
2022-10-06T02:04:19.272Z,16.30
2022-10-06T02:05:21.183Z,16.30
2022-10-06T02:06:23.134Z,16.30
2022-10-06T02:07:24.823Z,16.20
2022-10-06T02:08:26.891Z,16.30
2022-10-06T02:09:28.923Z,16.30
2022-10-06T02:10:30.699Z,16.30
2022-10-06T02:11:33.381Z,16.30
2022-10-06T02:12:35.343Z,16.30
2022-10-06T02:13:37.995Z,16.30
2022-10-06T02:14:39.635Z,16.20
2022-10-06T02:15:41.310Z,16.30
2022-10-06T02:16:43.604Z,16.30
2022-10-06T02:17:45.319Z,16.20
2022-10-06T02:18:47.515Z,16.30
2022-10-06T02:19:49.198Z,16.30
2022-10-06T02:20:51.371Z,16.30
2022-10-06T02:21:53.045Z,16.30
2022-10-06T02:22:54.695Z,16.20
2022-10-06T02:23:57.127Z,16.30
2022-10-06T02:24:58.823Z,16.30
2022-10-06T02:26:02.760Z,16.30
2022-10-06T02:27:05.280Z,16.40
2022-10-06T02:28:06.963Z,16.40
2022-10-06T02:29:08.746Z,16.40
2022-10-06T02:30:11.350Z,16.40
2022-10-06T02:31:14.137Z,16.40
2022-10-06T02:32:15.827Z,16.40
2022-10-06T02:33:17.488Z,16.40
2022-10-06T02:34:19.143Z,16.40
2022-10-06T02:35:20.792Z,16.40
2022-10-06T02:36:22.667Z,16.40
2022-10-06T02:37:24.318Z,16.40
2022-10-06T02:38:27.148Z,16.40
2022-10-06T02:39:29.163Z,16.40
2022-10-06T02:40:31.092Z,16.50
2022-10-06T02:41:32.926Z,16.40
2022-10-06T02:42:38.299Z,16.50
2022-10-06T02:43:39.960Z,16.50
2022-10-06T02:44:41.854Z,16.50
2022-10-06T02:45:43.527Z,16.50
2022-10-06T02:46:45.408Z,16.50
2022-10-06T02:47:47.107Z,16.50
2022-10-06T02:48:48.872Z,16.60
2022-10-06T02:49:51.000Z,16.60
2022-10-06T02:50:57.583Z,16.60
2022-10-06T02:51:59.242Z,16.70
2022-10-06T02:53:00.890Z,16.70
2022-10-06T02:54:02.729Z,16.70
2022-10-06T02:55:05.725Z,16.70
2022-10-06T02:56:11.548Z,16.70
2022-10-06T02:57:15.444Z,16.70
2022-10-06T02:58:17.099Z,16.70
2022-10-06T02:59:18.829Z,16.80
2022-10-06T03:00:21.365Z,16.80
2022-10-06T03:01:25.763Z,16.80
2022-10-06T03:02:30.469Z,16.80
2022-10-06T03:03:34.906Z,16.80
2022-10-06T03:04:36.642Z,16.80
2022-10-06T03:05:38.308Z,16.80
2022-10-06T03:06:40.057Z,16.80
2022-10-06T03:07:41.709Z,16.80
2022-10-06T03:08:43.377Z,16.80
2022-10-06T03:09:45.201Z,16.70
2022-10-06T03:10:46.878Z,16.70
2022-10-06T03:11:48.651Z,16.70
2022-10-06T03:12:50.820Z,16.70
2022-10-06T03:13:53.174Z,16.70
2022-10-06T03:14:54.890Z,16.70
2022-10-06T03:15:57.258Z,16.70
2022-10-06T03:16:59.311Z,16.70
2022-10-06T03:18:00.964Z,16.70
2022-10-06T03:19:03.600Z,16.60
2022-10-06T03:20:05.778Z,16.60
2022-10-06T03:21:07.502Z,16.60
2022-10-06T03:22:10.570Z,16.60
2022-10-06T03:23:13.666Z,16.60
2022-10-06T03:24:16.398Z,16.60
2022-10-06T03:25:18.098Z,16.60
2022-10-06T03:26:22.477Z,16.60
2022-10-06T03:27:24.223Z,16.60
2022-10-06T03:28:26.227Z,16.60
2022-10-06T03:29:30.981Z,16.60
2022-10-06T03:30:32.639Z,16.60
2022-10-06T03:31:34.853Z,16.60
2022-10-06T03:32:37.417Z,16.60
2022-10-06T03:33:39.143Z,16.60
2022-10-06T03:34:40.806Z,16.60
2022-10-06T03:35:42.704Z,16.60
2022-10-06T03:36:44.466Z,16.60
2022-10-06T03:37:46.125Z,16.50
2022-10-06T03:38:48.267Z,16.60
2022-10-06T03:39:49.919Z,16.50
2022-10-06T03:40:51.593Z,16.50
2022-10-06T03:41:53.256Z,16.50
2022-10-06T03:42:54.898Z,16.50
2022-10-06T03:43:58.238Z,16.40
2022-10-06T03:44:59.896Z,16.40
2022-10-06T03:46:02.858Z,16.40
2022-10-06T03:47:04.603Z,16.40
2022-10-06T03:48:07.098Z,16.30
2022-10-06T03:49:09.366Z,16.30
2022-10-06T03:50:11.025Z,16.30
2022-10-06T03:51:15.677Z,16.30
2022-10-06T03:52:18.599Z,16.30
2022-10-06T03:53:27.941Z,16.30
2022-10-06T03:54:29.605Z,16.20
2022-10-06T03:55:31.266Z,16.30
2022-10-06T03:56:35.831Z,16.30
2022-10-06T03:57:37.476Z,16.30
2022-10-06T03:58:42.007Z,16.30
2022-10-06T03:59:43.675Z,16.30
2022-10-06T04:00:46.410Z,16.40
2022-10-06T04:01:49.221Z,16.30
2022-10-06T04:02:50.964Z,16.30
2022-10-06T04:03:54.775Z,16.40
2022-10-06T04:04:59.358Z,16.30
2022-10-06T04:06:06.443Z,16.30
2022-10-06T04:07:08.398Z,16.30
2022-10-06T04:08:10.122Z,16.20
2022-10-06T04:09:15.758Z,16.30
2022-10-06T04:10:17.765Z,16.30
2022-10-06T04:11:22.912Z,16.30
2022-10-06T04:12:24.572Z,16.30
2022-10-06T04:13:26.421Z,16.30
2022-10-06T04:14:28.088Z,16.30
2022-10-06T04:15:30.991Z,16.30
2022-10-06T04:16:40.384Z,16.30
2022-10-06T04:17:42.060Z,16.30
2022-10-06T04:18:45.160Z,16.30
2022-10-06T04:19:46.896Z,16.30
2022-10-06T04:20:48.569Z,16.30
2022-10-06T04:21:50.247Z,16.30
2022-10-06T04:22:51.902Z,16.30
2022-10-06T04:23:55.035Z,16.30
2022-10-06T04:24:56.691Z,16.30
2022-10-06T04:25:59.700Z,16.40
2022-10-06T04:27:20.094Z,16.40
2022-10-06T04:28:21.823Z,16.40
2022-10-06T04:29:23.516Z,16.40
2022-10-06T04:30:26.237Z,16.40
2022-10-06T04:31:30.507Z,16.40
2022-10-06T04:32:32.565Z,16.50
2022-10-06T04:33:34.320Z,16.50
2022-10-06T04:34:36.033Z,16.50
2022-10-06T04:35:37.745Z,16.50
2022-10-06T04:36:41.180Z,16.60
2022-10-06T04:37:44.103Z,16.60
2022-10-06T04:38:45.749Z,16.60
2022-10-06T04:39:48.356Z,16.70
2022-10-06T04:40:50.116Z,16.60
2022-10-06T04:41:51.766Z,16.70
2022-10-06T04:42:53.504Z,16.70
2022-10-06T04:43:55.653Z,16.70
2022-10-06T04:44:57.367Z,16.80
2022-10-06T04:46:00.140Z,16.80
2022-10-06T04:47:01.932Z,16.80
2022-10-06T04:48:03.741Z,16.80
2022-10-06T04:49:05.573Z,16.90
2022-10-06T04:50:07.493Z,16.90
2022-10-06T04:51:14.869Z,16.90
2022-10-06T04:52:16.559Z,17.00
2022-10-06T04:53:18.205Z,17.00
2022-10-06T04:54:19.962Z,17.00
2022-10-06T04:55:21.579Z,17.10
2022-10-06T04:56:29.383Z,17.10
2022-10-06T04:57:32.177Z,17.10
2022-10-06T04:58:36.170Z,17.10
2022-10-06T04:59:56.502Z,17.10
2022-10-06T05:00:59.972Z,17.10
2022-10-06T05:02:02.642Z,17.10
2022-10-06T05:03:04.439Z,17.20
2022-10-06T05:04:06.471Z,17.20
2022-10-06T05:05:08.259Z,17.20
2022-10-06T05:06:18.009Z,17.20
2022-10-06T05:07:19.638Z,17.20
2022-10-06T05:08:21.298Z,17.20
2022-10-06T05:09:22.944Z,17.30
2022-10-06T05:10:24.692Z,17.30
2022-10-06T05:11:26.905Z,17.30
2022-10-06T05:12:31.221Z,17.30
2022-10-06T05:13:33.250Z,17.30
2022-10-06T05:14:35.290Z,17.30
2022-10-06T05:15:36.986Z,17.30
2022-10-06T05:16:38.749Z,17.30
2022-10-06T05:17:40.410Z,17.30
2022-10-06T05:18:42.410Z,17.30
2022-10-06T05:19:44.051Z,17.30
2022-10-06T05:20:55.644Z,17.40
2022-10-06T05:21:57.300Z,17.40
2022-10-06T05:22:58.940Z,17.40
2022-10-06T05:24:01.235Z,17.40
2022-10-06T05:25:02.890Z,17.40
2022-10-06T05:26:05.386Z,17.30
2022-10-06T05:27:07.014Z,17.40
2022-10-06T05:28:08.679Z,17.40
2022-10-06T05:29:10.367Z,17.40
2022-10-06T05:30:12.158Z,17.40
2022-10-06T05:31:22.396Z,17.30
2022-10-06T05:32:24.139Z,17.30
2022-10-06T05:33:27.733Z,17.30
2022-10-06T05:34:29.349Z,17.30
2022-10-06T05:35:31.008Z,17.30
2022-10-06T05:36:34.005Z,17.30
2022-10-06T05:37:35.976Z,17.30
2022-10-06T05:38:38.087Z,17.30
2022-10-06T05:39:39.743Z,17.30
2022-10-06T05:40:41.396Z,17.30
2022-10-06T05:41:43.062Z,17.30
2022-10-06T05:42:44.803Z,17.30
2022-10-06T05:43:48.175Z,17.20
2022-10-06T05:44:49.861Z,17.30
2022-10-06T05:45:56.147Z,17.20
2022-10-06T05:46:57.870Z,17.30
2022-10-06T05:47:59.674Z,17.30
2022-10-06T05:49:10.428Z,17.30
2022-10-06T05:50:12.942Z,17.30
2022-10-06T05:51:14.922Z,17.30
2022-10-06T05:52:16.570Z,17.30
2022-10-06T05:53:18.473Z,17.30
2022-10-06T05:54:20.268Z,17.30
2022-10-06T05:55:21.924Z,17.30
2022-10-06T05:56:34.661Z,17.20
2022-10-06T05:57:36.306Z,17.20
2022-10-06T05:58:39.904Z,17.20
2022-10-06T05:59:41.555Z,17.30
2022-10-06T06:00:43.489Z,17.30
2022-10-06T06:01:45.475Z,17.20
2022-10-06T06:02:47.307Z,17.30
2022-10-06T06:03:51.615Z,17.20
2022-10-06T06:04:53.267Z,17.20
2022-10-06T06:05:54.914Z,17.20
2022-10-06T06:06:56.568Z,17.20
2022-10-06T06:07:58.254Z,17.20
2022-10-06T06:09:08.298Z,17.20
2022-10-06T06:10:09.970Z,17.20
2022-10-06T06:11:12.460Z,17.20
2022-10-06T06:12:16.822Z,17.20
2022-10-06T06:13:22.666Z,17.20
2022-10-06T06:14:44.366Z,17.20
2022-10-06T06:16:01.426Z,17.20
2022-10-06T06:17:03.273Z,17.20
2022-10-06T06:18:06.137Z,17.10
2022-10-06T06:19:09.739Z,17.00
2022-10-06T06:20:11.427Z,16.90
2022-10-06T06:21:14.870Z,16.70
2022-10-06T06:22:16.520Z,16.50
2022-10-06T06:23:18.193Z,16.40
2022-10-06T06:24:19.849Z,16.30
2022-10-06T06:25:22.385Z,16.20
2022-10-06T06:26:30.037Z,16.00
2022-10-06T06:27:32.101Z,15.90
2022-10-06T06:28:35.448Z,15.70
2022-10-06T06:29:37.521Z,15.60
2022-10-06T06:30:39.180Z,15.40
2022-10-06T06:31:43.810Z,15.30
2022-10-06T06:32:46.150Z,15.20
2022-10-06T06:33:50.916Z,15.10
2022-10-06T06:34:52.822Z,15.00
2022-10-06T06:35:54.471Z,14.90
2022-10-06T06:37:03.621Z,14.80
2022-10-06T06:38:11.874Z,14.70
2022-10-06T06:39:15.469Z,14.50
2022-10-06T06:40:17.113Z,14.40
2022-10-06T06:41:18.752Z,14.30
2022-10-06T06:42:20.404Z,14.20
2022-10-06T06:43:22.242Z,14.10
2022-10-06T06:44:25.374Z,14.00
2022-10-06T06:45:27.042Z,13.90
2022-10-06T06:46:31.994Z,13.90
2022-10-06T06:47:35.048Z,13.80
2022-10-06T06:48:37.873Z,13.80
2022-10-06T06:49:39.564Z,13.70
2022-10-06T06:50:41.654Z,13.60
2022-10-06T06:51:49.774Z,13.60
2022-10-06T06:52:51.587Z,13.60
2022-10-06T06:53:53.603Z,13.50
2022-10-06T06:54:57.111Z,13.50
2022-10-06T06:55:58.789Z,13.40
2022-10-06T06:57:00.571Z,13.40
2022-10-06T06:58:02.347Z,13.30
2022-10-06T06:59:11.866Z,13.30
2022-10-06T07:00:14.077Z,13.20
2022-10-06T07:01:21.040Z,13.20
2022-10-06T07:02:26.536Z,13.10
2022-10-06T07:03:55.492Z,13.10
2022-10-06T07:04:51.465Z,13.00
2022-10-06T07:05:53.133Z,12.90
2022-10-06T07:06:57.958Z,12.90
2022-10-06T07:08:00.311Z,12.90
2022-10-06T07:09:01.964Z,12.90
2022-10-06T07:10:04.111Z,12.90
2022-10-06T07:11:33.362Z,12.90
2022-10-06T07:12:35.029Z,12.90
2022-10-06T07:13:36.721Z,12.80
2022-10-06T07:14:58.342Z,12.80
2022-10-06T07:16:18.916Z,12.80
2022-10-06T07:17:39.259Z,12.80
2022-10-06T07:18:59.813Z,12.80
2022-10-06T07:20:20.373Z,12.80
2022-10-06T07:21:40.798Z,12.70
2022-10-06T07:23:01.119Z,12.70
2022-10-06T07:24:21.515Z,12.70
2022-10-06T07:25:27.877Z,12.70
2022-10-06T07:26:31.056Z,12.80
2022-10-06T07:27:43.094Z,12.80
2022-10-06T07:28:44.826Z,12.80
2022-10-06T07:29:47.111Z,12.80
2022-10-06T07:30:48.789Z,12.80
2022-10-06T07:31:50.440Z,12.80
2022-10-06T07:32:53.195Z,12.80
2022-10-06T07:33:54.842Z,12.80
2022-10-06T07:34:58.650Z,12.80
2022-10-06T07:36:00.341Z,12.80
2022-10-06T07:37:04.282Z,12.80
2022-10-06T07:38:08.659Z,12.80
2022-10-06T07:39:10.463Z,12.80
2022-10-06T07:40:14.787Z,12.80
2022-10-06T07:41:20.504Z,12.80
2022-10-06T07:42:22.501Z,12.80
2022-10-06T07:43:24.459Z,12.80
2022-10-06T07:44:26.108Z,12.90
2022-10-06T07:45:38.380Z,12.90
2022-10-06T07:46:40.170Z,12.90
2022-10-06T07:47:41.950Z,12.90
2022-10-06T07:48:44.548Z,12.90
2022-10-06T07:49:47.263Z,13.00
2022-10-06T07:50:51.769Z,13.00
2022-10-06T07:51:53.635Z,13.00
2022-10-06T07:52:55.810Z,13.00
2022-10-06T07:53:57.499Z,13.00
2022-10-06T07:54:59.149Z,13.10
2022-10-06T07:56:06.586Z,13.10
2022-10-06T07:57:08.223Z,13.10
2022-10-06T07:58:20.843Z,13.10
2022-10-06T07:59:22.569Z,13.10
2022-10-06T08:00:27.123Z,13.20
2022-10-06T08:01:30.427Z,13.10
2022-10-06T08:02:35.459Z,13.10
2022-10-06T08:03:38.831Z,13.10
2022-10-06T08:04:40.501Z,13.10
2022-10-06T08:05:42.127Z,13.20
2022-10-06T08:06:44.503Z,13.20
2022-10-06T08:07:46.443Z,13.20
2022-10-06T08:08:52.588Z,13.20
2022-10-06T08:09:54.666Z,13.30
2022-10-06T08:11:00.249Z,13.30
2022-10-06T08:12:23.083Z,13.30
2022-10-06T08:13:25.405Z,13.40
2022-10-06T08:14:27.051Z,13.40
2022-10-06T08:15:28.742Z,13.40
2022-10-06T08:16:30.603Z,13.40
2022-10-06T08:17:33.737Z,13.40
2022-10-06T08:18:45.909Z,13.50
2022-10-06T08:19:48.408Z,13.50
2022-10-06T08:20:50.075Z,13.50
2022-10-06T08:21:52.160Z,13.50
2022-10-06T08:22:54.219Z,13.60
2022-10-06T08:23:57.326Z,13.60
2022-10-06T08:25:06.089Z,13.60
2022-10-06T08:26:12.371Z,13.60
2022-10-06T08:27:14.440Z,13.70
2022-10-06T08:28:16.153Z,13.70
2022-10-06T08:29:17.843Z,13.70
2022-10-06T08:30:19.505Z,13.80
2022-10-06T08:31:22.751Z,13.80
2022-10-06T08:32:24.587Z,13.80
2022-10-06T08:33:26.981Z,13.80
2022-10-06T08:34:28.755Z,13.90
2022-10-06T08:35:31.142Z,13.90
2022-10-06T08:36:32.934Z,13.90
2022-10-06T08:37:34.622Z,13.90
2022-10-06T08:38:37.448Z,13.90
2022-10-06T08:39:41.373Z,13.90
2022-10-06T08:40:44.659Z,13.90
2022-10-06T08:41:51.822Z,13.90
2022-10-06T08:42:58.982Z,14.00
2022-10-06T08:44:05.500Z,14.00
2022-10-06T08:45:19.193Z,14.00
2022-10-06T08:46:24.871Z,14.10
2022-10-06T08:47:30.258Z,14.10
2022-10-06T08:48:38.605Z,14.10
2022-10-06T08:49:44.469Z,14.10
2022-10-06T08:51:24.240Z,14.10
2022-10-06T08:52:50.274Z,14.20
2022-10-06T08:54:09.080Z,14.20
2022-10-06T08:55:28.542Z,14.20
2022-10-06T08:56:54.541Z,14.20
2022-10-06T08:58:37.555Z,14.20
2022-10-06T08:59:42.784Z,14.20
2022-10-06T09:00:44.523Z,14.20
2022-10-06T09:01:49.088Z,14.20
2022-10-06T09:02:51.846Z,14.20
2022-10-06T09:03:58.402Z,14.30
2022-10-06T09:05:03.968Z,14.30
2022-10-06T09:06:36.207Z,14.30
2022-10-06T09:07:52.334Z,14.30
2022-10-06T09:08:59.625Z,14.30
2022-10-06T09:10:01.292Z,14.30
2022-10-06T09:11:09.943Z,14.30
2022-10-06T09:12:18.302Z,14.40
2022-10-06T09:13:26.719Z,14.40
2022-10-06T09:14:37.775Z,14.40
2022-10-06T09:15:55.027Z,14.40
2022-10-06T09:17:02.303Z,14.50
2022-10-06T09:18:15.327Z,14.50
2022-10-06T09:19:24.770Z,14.50
2022-10-06T09:20:43.882Z,14.60
2022-10-06T09:21:52.189Z,14.60
2022-10-06T09:22:56.633Z,14.60
2022-10-06T09:24:05.861Z,14.70
2022-10-06T09:25:20.458Z,14.70
2022-10-06T09:26:28.364Z,14.70
2022-10-06T09:27:33.921Z,14.80
2022-10-06T09:28:37.469Z,14.80
2022-10-06T09:29:39.211Z,14.80
2022-10-06T09:30:42.883Z,14.90
2022-10-06T09:31:52.828Z,14.90
2022-10-06T09:33:05.764Z,15.00
2022-10-06T09:34:16.149Z,15.00
2022-10-06T09:35:21.417Z,15.10
2022-10-06T09:36:24.109Z,15.10
2022-10-06T09:37:26.500Z,15.10
2022-10-06T09:38:53.931Z,15.30
2022-10-06T09:39:55.969Z,15.30
2022-10-06T09:40:57.896Z,15.40
2022-10-06T09:42:25.749Z,15.50
2022-10-06T09:43:29.297Z,15.60
2022-10-06T09:44:40.549Z,15.60
2022-10-06T09:45:42.664Z,15.70
2022-10-06T09:46:45.436Z,15.70
2022-10-06T09:47:47.214Z,15.70
2022-10-06T09:49:05.512Z,15.70
2022-10-06T09:50:14.151Z,15.70
2022-10-06T09:51:18.069Z,15.70
2022-10-06T09:52:19.752Z,15.70
2022-10-06T09:53:21.685Z,15.70
2022-10-06T09:54:24.478Z,15.70
2022-10-06T09:55:29.894Z,15.80
2022-10-06T09:56:32.962Z,15.80
2022-10-06T09:57:35.630Z,15.90
2022-10-06T09:58:40.433Z,16.00
2022-10-06T09:59:45.053Z,16.10
2022-10-06T10:00:55.835Z,16.10
2022-10-06T10:01:59.765Z,16.20
2022-10-06T10:03:02.854Z,16.30
2022-10-06T10:04:21.264Z,16.40
2022-10-06T10:05:25.029Z,16.50
2022-10-06T10:06:29.071Z,16.60
2022-10-06T10:07:31.369Z,16.60
2022-10-06T10:08:33.066Z,16.70
2022-10-06T10:09:34.801Z,16.70
2022-10-06T10:10:37.457Z,16.80
2022-10-06T10:11:58.217Z,16.80
2022-10-06T10:13:00.611Z,16.80
2022-10-06T10:14:03.018Z,16.90
2022-10-06T10:15:30.354Z,17.10
2022-10-06T10:16:35.648Z,17.30
2022-10-06T10:17:37.312Z,17.30
2022-10-06T10:18:46.951Z,17.40
2022-10-06T10:19:53.831Z,17.50
2022-10-06T10:21:00.157Z,17.60
2022-10-06T10:22:03.643Z,17.70
2022-10-06T10:23:07.334Z,17.80
2022-10-06T10:24:23.112Z,17.90
2022-10-06T10:26:02.551Z,18.10
2022-10-06T10:27:14.501Z,18.10
2022-10-06T10:28:41.995Z,18.10
2022-10-06T10:29:59.441Z,18.00
2022-10-06T10:31:16.441Z,18.10
2022-10-06T10:32:58.451Z,18.10
2022-10-06T10:34:12.773Z,18.20
2022-10-06T10:35:47.149Z,18.10
2022-10-06T10:36:57.554Z,18.00
2022-10-06T10:38:13.727Z,17.90
2022-10-06T10:39:39.746Z,17.80
2022-10-06T10:40:45.380Z,17.60
2022-10-06T10:41:52.336Z,17.50
2022-10-06T10:43:01.813Z,17.40
2022-10-06T10:44:14.057Z,17.50
2022-10-06T10:45:37.034Z,17.60
2022-10-06T10:46:41.724Z,17.70
2022-10-06T10:47:45.540Z,17.60
2022-10-06T10:48:55.396Z,17.60
2022-10-06T10:50:08.673Z,17.60
2022-10-06T10:51:19.803Z,17.70
2022-10-06T10:52:27.347Z,17.80
2022-10-06T10:53:42.614Z,17.80
2022-10-06T10:55:03.208Z,17.70
2022-10-06T10:56:10.423Z,17.70
2022-10-06T10:57:21.857Z,17.80
2022-10-06T10:58:26.599Z,17.80
2022-10-06T10:59:35.824Z,17.70
2022-10-06T11:00:42.785Z,17.80
2022-10-06T11:01:53.161Z,17.90
2022-10-06T11:03:00.946Z,18.00
2022-10-06T11:04:03.526Z,18.10
2022-10-06T11:05:17.409Z,18.00
2022-10-06T11:06:40.217Z,17.90
2022-10-06T11:07:47.824Z,17.90
2022-10-06T11:09:05.680Z,18.10
2022-10-06T11:10:15.955Z,18.00
2022-10-06T11:11:37.880Z,18.00
2022-10-06T11:13:05.893Z,18.00
2022-10-06T11:14:41.577Z,18.10
2022-10-06T11:16:14.621Z,18.10
2022-10-06T11:17:40.231Z,18.00
2022-10-06T11:18:54.660Z,18.10
2022-10-06T11:20:08.769Z,17.90
2022-10-06T11:21:27.533Z,17.90
2022-10-06T11:22:42.822Z,17.90
2022-10-06T11:24:03.126Z,17.80
2022-10-06T11:25:31.298Z,17.90
2022-10-06T11:26:54.890Z,18.00
2022-10-06T11:28:29.342Z,18.00
2022-10-06T11:29:38.743Z,18.00
2022-10-06T11:31:24.534Z,18.00
2022-10-06T11:32:40.542Z,18.10
2022-10-06T11:33:50.774Z,18.20
2022-10-06T11:34:53.332Z,18.20
2022-10-06T11:35:55.444Z,18.30
2022-10-06T11:37:16.038Z,18.40
2022-10-06T11:38:56.480Z,18.40
2022-10-06T11:40:19.556Z,18.50
2022-10-06T11:41:32.165Z,18.50
2022-10-06T11:42:50.248Z,18.50
2022-10-06T11:43:54.710Z,18.50
2022-10-06T11:45:03.928Z,18.50
2022-10-06T11:46:24.398Z,18.50
2022-10-06T11:47:50.017Z,18.50
2022-10-06T11:48:51.911Z,18.50
2022-10-06T11:49:55.815Z,18.50
2022-10-06T11:51:24.957Z,18.60
2022-10-06T11:52:26.562Z,18.60
2022-10-06T11:53:40.065Z,18.60
2022-10-06T11:54:47.708Z,18.50
2022-10-06T11:56:18.079Z,18.50
2022-10-06T11:57:26.211Z,18.50
2022-10-06T11:58:51.226Z,18.30
2022-10-06T12:00:16.780Z,18.30
2022-10-06T12:01:34.678Z,18.20
2022-10-06T12:02:38.866Z,18.00
2022-10-06T12:03:46.303Z,18.00
2022-10-06T12:05:35.720Z,18.10
2022-10-06T12:06:47.610Z,18.00
2022-10-06T12:07:57.890Z,17.90
2022-10-06T12:08:59.598Z,17.90
2022-10-06T12:10:29.990Z,17.80
2022-10-06T12:11:43.730Z,17.80
2022-10-06T12:13:07.243Z,17.70
2022-10-06T12:17:43.389Z,17.90
2022-10-06T12:19:16.827Z,18.00
2022-10-06T12:20:18.714Z,18.10
2022-10-06T12:21:40.072Z,18.20
2022-10-06T12:22:50.553Z,18.20
2022-10-06T12:23:55.011Z,18.30
2022-10-06T12:25:24.813Z,18.30
2022-10-06T12:26:49.181Z,18.40
2022-10-06T12:28:02.347Z,18.40
2022-10-06T12:29:38.142Z,18.40
2022-10-06T12:31:21.614Z,18.40
2022-10-06T12:32:46.807Z,18.50
2022-10-06T12:33:49.233Z,18.50
2022-10-06T12:35:03.031Z,18.50
2022-10-06T12:36:16.368Z,18.40
2022-10-06T12:37:37.562Z,18.40
2022-10-06T12:38:59.997Z,18.40
2022-10-06T12:40:46.791Z,18.30
2022-10-06T12:42:07.576Z,18.30
2022-10-06T12:43:15.380Z,18.30
2022-10-06T12:44:36.526Z,18.30
2022-10-06T12:46:12.283Z,18.30
2022-10-06T12:47:19.080Z,18.30
2022-10-06T12:48:35.995Z,18.30
2022-10-06T12:49:47.244Z,18.40
2022-10-06T12:50:54.788Z,18.40
2022-10-06T12:51:59.679Z,18.40
2022-10-06T12:53:11.830Z,18.40
2022-10-06T12:54:22.673Z,18.30
2022-10-06T12:55:49.061Z,18.30
2022-10-06T12:57:02.136Z,18.30
2022-10-06T12:58:03.877Z,18.30
2022-10-06T12:59:20.344Z,18.20
2022-10-06T13:00:36.137Z,18.30
2022-10-06T13:01:38.737Z,18.30
2022-10-06T13:02:44.320Z,18.40
2022-10-06T13:03:51.523Z,18.30
2022-10-06T13:05:00.429Z,18.40
2022-10-06T13:06:05.016Z,18.40
2022-10-06T13:07:19.201Z,18.30
2022-10-06T13:08:32.074Z,18.30
2022-10-06T13:09:34.448Z,18.30
2022-10-06T13:10:36.248Z,18.20
2022-10-06T13:11:37.953Z,18.20
2022-10-06T13:12:41.137Z,18.20
2022-10-06T13:13:51.014Z,18.20
2022-10-06T13:15:14.198Z,18.20
2022-10-06T13:16:22.173Z,18.20
2022-10-06T13:17:23.904Z,18.30
2022-10-06T13:18:27.459Z,18.30
2022-10-06T13:19:30.018Z,18.40
2022-10-06T13:20:50.198Z,18.50
2022-10-06T13:21:52.604Z,18.50
2022-10-06T13:23:00.312Z,18.50
2022-10-06T13:24:03.144Z,18.50
2022-10-06T13:25:05.251Z,18.50
2022-10-06T13:26:25.053Z,18.60
2022-10-06T13:27:26.766Z,18.60
2022-10-06T13:28:43.238Z,18.50
2022-10-06T13:29:45.051Z,18.50
2022-10-06T13:30:59.863Z,18.50
2022-10-06T13:32:02.566Z,18.50
2022-10-06T13:33:04.339Z,18.50
2022-10-06T13:34:14.702Z,18.40
2022-10-06T13:35:16.588Z,18.40
2022-10-06T13:36:19.761Z,18.30
2022-10-06T13:37:21.687Z,18.30
2022-10-06T13:38:23.381Z,18.30
2022-10-06T13:39:27.041Z,18.30
2022-10-06T13:40:44.163Z,18.30
2022-10-06T13:41:58.452Z,18.30
2022-10-06T13:43:01.957Z,18.30
2022-10-06T13:44:14.104Z,18.30
2022-10-06T13:45:16.445Z,18.20
2022-10-06T13:46:28.743Z,18.20
2022-10-06T13:47:30.839Z,18.20
2022-10-06T13:48:32.543Z,18.20
2022-10-06T13:49:47.133Z,18.20
2022-10-06T13:50:49.710Z,18.20
2022-10-06T13:51:56.954Z,18.20
2022-10-06T13:52:58.703Z,18.20
2022-10-06T13:54:21.503Z,18.20
2022-10-06T13:55:25.900Z,18.10
2022-10-06T13:58:04.910Z,18.20
2022-10-06T13:59:33.419Z,18.30
2022-10-06T14:00:51.937Z,18.40
2022-10-06T14:01:55.167Z,18.40
2022-10-06T14:03:09.489Z,18.40
2022-10-06T14:04:13.126Z,18.40
2022-10-06T14:05:24.002Z,18.40
2022-10-06T14:06:27.756Z,18.40
2022-10-06T14:07:29.423Z,18.40
2022-10-06T14:08:31.484Z,18.40
2022-10-06T14:09:34.146Z,18.40
2022-10-06T14:10:48.469Z,18.40
2022-10-06T14:11:51.280Z,18.40
2022-10-06T14:12:53.256Z,18.40
2022-10-06T14:13:59.312Z,18.40
2022-10-06T14:15:03.023Z,18.40
2022-10-06T14:16:07.920Z,18.40
2022-10-06T14:17:27.897Z,18.40
2022-10-06T14:18:40.729Z,18.30
2022-10-06T14:19:42.427Z,18.40
2022-10-06T14:20:46.940Z,18.30
2022-10-06T14:21:48.620Z,18.30
2022-10-06T14:22:50.268Z,18.30
2022-10-06T14:23:53.775Z,18.20
2022-10-06T14:24:55.552Z,18.20
2022-10-06T14:25:57.245Z,18.20